createdAt,value
2022-08-05T00:01:27.661Z,42.77
2022-08-05T00:06:33.450Z,43.16
2022-08-05T00:11:48.393Z,43.06
2022-08-05T00:16:53.959Z,43.70
2022-08-05T00:21:57.152Z,43.00
2022-08-05T00:27:04.558Z,43.10
2022-08-05T00:32:15.076Z,43.74
2022-08-05T00:37:18.295Z,43.38
2022-08-05T00:42:32.941Z,43.44
2022-08-05T00:47:56.234Z,43.14
2022-08-05T00:52:59.031Z,43.87
2022-08-05T00:58:11.100Z,43.72
2022-08-05T01:03:22.653Z,43.64
2022-08-05T01:08:42.059Z,44.18
2022-08-05T01:13:59.794Z,44.05
2022-08-05T01:19:14.206Z,45.58
2022-08-05T01:24:32.473Z,45.37
2022-08-05T01:29:43.063Z,45.51
2022-08-05T01:34:51.630Z,45.91
2022-08-05T01:39:59.157Z,45.77
2022-08-05T01:45:08.157Z,45.99
2022-08-05T01:50:17.260Z,45.94
2022-08-05T01:55:23.684Z,46.28
2022-08-05T02:00:31.103Z,45.99
2022-08-05T02:05:37.736Z,46.14
2022-08-05T02:10:52.475Z,47.28
2022-08-05T02:16:04.012Z,46.71
2022-08-05T02:21:14.986Z,46.57
2022-08-05T02:26:26.556Z,46.30
2022-08-05T02:31:34.769Z,46.29
2022-08-05T02:36:42.520Z,45.74
2022-08-05T02:42:01.026Z,45.50
2022-08-05T02:47:09.130Z,43.95
2022-08-05T02:52:29.590Z,44.27
2022-08-05T02:58:12.349Z,43.72
2022-08-05T03:03:00.068Z,44.53
2022-08-05T03:08:08.545Z,44.30
2022-08-05T03:13:16.889Z,43.87
2022-08-05T03:18:29.801Z,44.02
2022-08-05T03:23:34.329Z,44.25
2022-08-05T03:28:38.473Z,44.04
2022-08-05T03:33:51.481Z,44.56
2022-08-05T03:38:56.316Z,44.02
2022-08-05T03:44:10.262Z,46.16
2022-08-05T03:49:15.867Z,46.03
2022-08-05T03:55:06.918Z,46.27
2022-08-05T03:59:54.666Z,47.76
2022-08-05T04:05:01.702Z,48.29
2022-08-05T04:10:05.186Z,47.51
2022-08-05T04:15:09.051Z,48.04
2022-08-05T04:20:22.121Z,47.50
2022-08-05T04:25:57.651Z,46.96
2022-08-05T04:30:49.883Z,46.50
2022-08-05T04:36:15.939Z,44.06
2022-08-05T04:41:17.193Z,43.08
2022-08-05T04:46:27.837Z,40.69
2022-08-05T04:51:33.032Z,38.98
2022-08-05T04:56:37.845Z,38.49
2022-08-05T05:02:06.954Z,39.67
2022-08-05T05:07:09.331Z,38.11
2022-08-05T05:12:12.844Z,37.55
2022-08-05T05:17:19.872Z,36.83
2022-08-05T05:22:27.995Z,40.22
2022-08-05T05:27:44.348Z,38.91
2022-08-05T05:32:49.613Z,39.63
2022-08-05T05:37:59.976Z,37.72
2022-08-05T05:43:05.015Z,37.78
2022-08-05T05:48:11.601Z,38.93
2022-08-05T05:53:21.587Z,37.91
2022-08-05T05:58:30.209Z,37.38
2022-08-05T06:03:54.068Z,35.83
2022-08-05T06:08:59.610Z,37.06
2022-08-05T06:14:02.847Z,35.35
2022-08-05T06:19:07.438Z,36.39
2022-08-05T06:24:14.669Z,35.44
2022-08-05T06:29:45.376Z,33.65
2022-08-05T06:34:41.454Z,32.37
2022-08-05T06:39:45.887Z,32.47
2022-08-05T06:44:49.368Z,30.93
2022-08-05T06:50:00.026Z,30.39
2022-08-05T06:55:07.437Z,33.20
2022-08-05T07:00:11.933Z,34.77
2022-08-05T07:05:19.567Z,34.59
2022-08-05T07:10:32.423Z,35.64
2022-08-05T07:16:00.983Z,34.73
2022-08-05T07:21:10.847Z,38.57
2022-08-05T07:26:18.405Z,37.82
2022-08-05T07:31:53.953Z,38.32
2022-08-05T07:36:48.750Z,38.74
2022-08-05T07:42:07.960Z,40.02
2022-08-05T07:47:14.868Z,38.77
2022-08-05T07:52:17.908Z,36.88
2022-08-05T07:57:42.151Z,38.34
2022-08-05T08:03:13.708Z,41.30
2022-08-05T08:08:12.470Z,39.87
2022-08-05T08:13:21.855Z,43.52
2022-08-05T08:18:31.761Z,40.35
2022-08-05T08:24:03.753Z,40.97
2022-08-05T08:29:21.521Z,43.87
2022-08-05T08:34:30.521Z,43.51
2022-08-05T08:39:37.377Z,39.41
2022-08-05T08:45:22.720Z,38.16
2022-08-05T08:50:30.488Z,41.55
2022-08-05T08:56:03.691Z,38.91
2022-08-05T09:01:01.251Z,38.48
2022-08-05T09:06:08.470Z,40.02
2022-08-05T09:11:15.079Z,39.98
2022-08-05T09:16:19.591Z,38.15
2022-08-05T09:22:22.720Z,36.39
2022-08-05T09:26:52.606Z,40.45
2022-08-05T09:32:41.099Z,37.01
2022-08-05T09:38:16.163Z,40.70
2022-08-05T09:42:53.930Z,39.25
2022-08-05T09:47:58.386Z,40.48
2022-08-05T09:53:01.779Z,36.61
2022-08-05T09:58:12.097Z,36.06
2022-08-05T10:03:16.469Z,35.25
2022-08-05T10:08:37.365Z,41.20
2022-08-05T10:13:47.792Z,43.55
2022-08-05T10:18:55.517Z,41.62
2022-08-05T10:24:01.327Z,41.19
2022-08-05T10:29:05.468Z,40.98
2022-08-05T10:34:10.841Z,39.19
2022-08-05T10:39:25.007Z,38.07
2022-08-05T10:44:45.676Z,41.68
2022-08-05T10:50:32.590Z,40.07
2022-08-05T10:56:03.401Z,35.79
2022-08-05T11:01:03.179Z,33.92
2022-08-05T11:06:16.115Z,33.24
2022-08-05T11:11:52.083Z,36.82
2022-08-05T11:17:59.193Z,33.43
2022-08-05T11:22:58.046Z,35.98
2022-08-05T11:28:44.267Z,35.43
2022-08-05T11:33:55.783Z,35.55
2022-08-05T11:39:03.218Z,36.72
2022-08-05T11:44:10.662Z,34.42
2022-08-05T11:49:16.785Z,33.75
2022-08-05T11:54:33.355Z,31.68
2022-08-05T11:59:49.545Z,31.33
2022-08-05T12:04:59.581Z,32.91
2022-08-05T12:10:09.565Z,31.72
2022-08-05T12:15:21.013Z,32.94
2022-08-05T12:20:44.378Z,30.67
2022-08-05T12:25:56.851Z,28.32
2022-08-05T12:31:02.384Z,31.09
2022-08-05T12:36:08.726Z,30.66
2022-08-05T12:41:16.250Z,30.63
2022-08-05T12:46:28.971Z,29.85
2022-08-05T12:52:12.686Z,28.62
2022-08-05T12:56:59.531Z,27.13
2022-08-05T13:02:07.760Z,28.27
2022-08-05T13:07:15.923Z,28.90
2022-08-05T13:12:28.500Z,28.31
2022-08-05T13:17:42.029Z,25.90
2022-08-05T13:22:50.276Z,25.90
2022-08-05T13:27:56.176Z,26.61
2022-08-05T13:33:01.235Z,26.79
2022-08-05T13:38:06.000Z,28.10
2022-08-05T13:43:11.956Z,27.98
2022-08-05T13:48:57.963Z,28.61
2022-08-05T13:53:48.013Z,30.59
2022-08-05T13:58:53.854Z,29.10
2022-08-05T14:04:14.569Z,28.57
2022-08-05T14:09:18.220Z,28.20
2022-08-05T14:14:29.604Z,27.17
2022-08-05T14:19:54.202Z,29.18
2022-08-05T14:24:59.733Z,29.53
2022-08-05T14:30:04.815Z,29.47
2022-08-05T14:35:23.610Z,28.80
2022-08-05T14:40:40.768Z,29.87
2022-08-05T14:45:48.451Z,29.95
2022-08-05T14:50:51.437Z,29.13
2022-08-05T14:55:55.964Z,27.87
2022-08-05T15:01:00.494Z,27.37
2022-08-05T15:06:07.803Z,27.51
2022-08-05T15:11:16.731Z,29.81
2022-08-05T15:16:21.138Z,29.36
2022-08-05T15:21:25.338Z,29.73
2022-08-05T15:26:33.449Z,29.56
2022-08-05T15:31:37.801Z,29.93
2022-08-05T15:36:40.855Z,30.54
2022-08-05T15:41:56.337Z,30.86
2022-08-05T15:47:04.319Z,31.34
2022-08-05T15:52:16.369Z,31.60
2022-08-05T15:57:33.210Z,31.73
2022-08-05T16:02:39.319Z,31.22
2022-08-05T16:07:46.249Z,30.84
2022-08-05T16:12:50.603Z,31.66
2022-08-05T16:17:57.660Z,32.52
2022-08-05T16:23:01.292Z,32.39
2022-08-05T16:28:05.966Z,32.56
2022-08-05T16:33:10.918Z,32.29
2022-08-05T16:38:18.880Z,32.07
2022-08-05T16:43:31.423Z,33.84
2022-08-05T16:48:36.263Z,34.57
2022-08-05T16:54:06.017Z,33.74
2022-08-05T16:59:08.115Z,34.01
2022-08-05T17:04:13.242Z,35.63
2022-08-05T17:09:18.214Z,35.97
2022-08-05T17:14:22.348Z,36.21
2022-08-05T17:19:39.313Z,35.87
2022-08-05T17:24:53.687Z,35.50
2022-08-05T17:30:02.549Z,34.06
2022-08-05T17:35:08.325Z,33.30
2022-08-05T17:40:18.115Z,33.78
2022-08-05T17:45:38.161Z,39.05
2022-08-05T17:50:43.253Z,44.99
2022-08-05T17:55:46.265Z,45.04
2022-08-05T18:00:50.807Z,46.98
2022-08-05T18:05:55.926Z,46.37
2022-08-05T18:11:05.028Z,48.65
2022-08-05T18:16:09.643Z,49.38
2022-08-05T18:21:19.543Z,49.71
2022-08-05T18:26:27.578Z,51.61
2022-08-05T18:31:32.938Z,55.89
2022-08-05T18:36:38.521Z,56.18
2022-08-05T18:41:56.778Z,57.15
2022-08-05T18:47:04.838Z,58.82
2022-08-05T18:52:33.233Z,64.45
2022-08-05T18:57:50.340Z,64.11
2022-08-05T19:02:57.550Z,65.71
2022-08-05T19:08:13.413Z,64.77
2022-08-05T19:13:18.391Z,68.05
2022-08-05T19:18:22.974Z,66.40
2022-08-05T19:24:06.676Z,66.07
2022-08-05T19:28:52.474Z,66.07
2022-08-05T19:33:58.486Z,66.01
2022-08-05T19:39:03.687Z,66.50
2022-08-05T19:44:13.083Z,65.66
2022-08-05T19:49:17.793Z,64.70
2022-08-05T19:54:29.409Z,64.41
2022-08-05T19:59:56.021Z,65.04
2022-08-05T20:04:58.552Z,62.63
2022-08-05T20:10:11.485Z,63.20
2022-08-05T20:15:23.342Z,64.40
2022-08-05T20:20:44.758Z,62.26
2022-08-05T20:25:49.249Z,60.60
2022-08-05T20:30:55.657Z,61.42
2022-08-05T20:35:58.772Z,61.22
2022-08-05T20:41:04.722Z,63.10
2022-08-05T20:46:18.276Z,61.02
2022-08-05T20:51:27.788Z,61.24
2022-08-05T20:56:40.181Z,60.53
2022-08-05T21:01:45.719Z,59.48
2022-08-05T21:06:48.835Z,58.85
2022-08-05T21:12:10.353Z,59.18
2022-08-05T21:17:15.445Z,60.55
2022-08-05T21:22:23.399Z,59.79
2022-08-05T21:27:29.022Z,60.16
2022-08-05T21:32:42.102Z,60.13
2022-08-05T21:37:47.438Z,60.72
2022-08-05T21:42:59.028Z,61.28
2022-08-05T21:48:02.460Z,59.05
2022-08-05T21:53:17.610Z,58.21
2022-08-05T21:58:30.860Z,58.99
2022-08-05T22:03:53.227Z,58.46
2022-08-05T22:08:56.723Z,56.55
2022-08-05T22:14:32.486Z,55.62
2022-08-05T22:20:01.089Z,57.42
2022-08-05T22:25:05.349Z,57.13
2022-08-05T22:30:22.277Z,56.27
2022-08-05T22:35:25.396Z,55.07
2022-08-05T22:40:34.159Z,54.27
2022-08-05T22:45:38.675Z,54.15
2022-08-05T22:50:46.230Z,60.43
2022-08-05T22:55:59.501Z,64.03
2022-08-05T23:01:04.394Z,66.24
2022-08-05T23:06:09.633Z,66.03
2022-08-05T23:11:13.191Z,67.07
2022-08-05T23:16:33.370Z,68.21
2022-08-05T23:21:43.133Z,68.32
2022-08-05T23:26:51.689Z,69.73
2022-08-05T23:31:56.073Z,69.07
2022-08-05T23:36:59.364Z,68.05
2022-08-05T23:42:03.642Z,66.12
2022-08-05T23:47:15.197Z,67.28
2022-08-05T23:52:29.309Z,68.40
2022-08-05T23:57:34.985Z,66.40
